sensor_id;sensor_type;location;lat;lon;timestamp;P1;durP1;ratioP1;P2;durP2;ratioP2
13331;SDS011;6735;51.456;12.626;2023-03-20T00:00:16;6.20;;;5.60;;
13331;SDS011;6735;51.456;12.626;2023-03-20T00:02:54;6.10;;;5.50;;
13331;SDS011;6735;51.456;12.626;2023-03-20T00:05:20;6.10;;;5.50;;
13331;SDS011;6735;51.456;12.626;2023-03-20T00:07:48;5.90;;;5.33;;
13331;SDS011;6735;51.456;12.626;2023-03-20T00:10:15;5.83;;;5.33;;
13331;SDS011;6735;51.456;12.626;2023-03-20T00:12:41;6.40;;;5.20;;
13331;SDS011;6735;51.456;12.626;2023-03-20T00:15:42;5.90;;;5.20;;
13331;SDS011;6735;51.456;12.626;2023-03-20T00:18:08;5.63;;;5.20;;
13331;SDS011;6735;51.456;12.626;2023-03-20T00:20:38;6.47;;;5.50;;
13331;SDS011;6735;51.456;12.626;2023-03-20T00:23:04;6.00;;;5.40;;
13331;SDS011;6735;51.456;12.626;2023-03-20T00:25:29;6.70;;;5.37;;
13331;SDS011;6735;51.456;12.626;2023-03-20T00:27:56;5.40;;;4.70;;
13331;SDS011;6735;51.456;12.626;2023-03-20T00:30:23;5.53;;;5.03;;
13331;SDS011;6735;51.456;12.626;2023-03-20T00:32:52;6.10;;;5.50;;
13331;SDS011;6735;51.456;12.626;2023-03-20T00:35:20;5.33;;;4.93;;
13331;SDS011;6735;51.456;12.626;2023-03-20T00:37:49;5.53;;;5.03;;
13331;SDS011;6735;51.456;12.626;2023-03-20T00:40:15;5.40;;;4.90;;
13331;SDS011;6735;51.456;12.626;2023-03-20T00:42:42;5.57;;;5.07;;
13331;SDS011;6735;51.456;12.626;2023-03-20T00:45:11;5.97;;;4.90;;
13331;SDS011;6735;51.456;12.626;2023-03-20T00:47:40;5.67;;;5.17;;
13331;SDS011;6735;51.456;12.626;2023-03-20T00:50:09;5.70;;;5.10;;
13331;SDS011;6735;51.456;12.626;2023-03-20T00:52:43;4.63;;;4.33;;
13331;SDS011;6735;51.456;12.626;2023-03-20T00:55:09;5.20;;;4.80;;
13331;SDS011;6735;51.456;12.626;2023-03-20T00:57:37;5.03;;;4.53;;
13331;SDS011;6735;51.456;12.626;2023-03-20T01:02:57;5.33;;;4.60;;
13331;SDS011;6735;51.456;12.626;2023-03-20T01:05:24;5.30;;;4.80;;
13331;SDS011;6735;51.456;12.626;2023-03-20T01:07:51;5.23;;;4.83;;
13331;SDS011;6735;51.456;12.626;2023-03-20T01:10:16;5.03;;;4.60;;
13331;SDS011;6735;51.456;12.626;2023-03-20T01:12:42;5.27;;;4.77;;
13331;SDS011;6735;51.456;12.626;2023-03-20T01:15:20;7.30;;;4.90;;
13331;SDS011;6735;51.456;12.626;2023-03-20T01:17:49;5.77;;;4.70;;
13331;SDS011;6735;51.456;12.626;2023-03-20T01:20:16;5.27;;;4.80;;
13331;SDS011;6735;51.456;12.626;2023-03-20T01:22:45;5.20;;;4.57;;
13331;SDS011;6735;51.456;12.626;2023-03-20T01:25:11;5.13;;;4.67;;
13331;SDS011;6735;51.456;12.626;2023-03-20T01:27:36;5.67;;;5.20;;
13331;SDS011;6735;51.456;12.626;2023-03-20T01:30:03;5.57;;;5.00;;
13331;SDS011;6735;51.456;12.626;2023-03-20T01:32:39;6.73;;;5.37;;
13331;SDS011;6735;51.456;12.626;2023-03-20T01:35:05;5.90;;;5.30;;
13331;SDS011;6735;51.456;12.626;2023-03-20T01:37:31;6.67;;;5.90;;
13331;SDS011;6735;51.456;12.626;2023-03-20T01:39:57;6.40;;;5.90;;
13331;SDS011;6735;51.456;12.626;2023-03-20T01:42:22;6.70;;;5.97;;
13331;SDS011;6735;51.456;12.626;2023-03-20T01:44:48;7.30;;;6.57;;
13331;SDS011;6735;51.456;12.626;2023-03-20T01:47:18;6.60;;;6.10;;
13331;SDS011;6735;51.456;12.626;2023-03-20T01:52:33;6.90;;;6.30;;
13331;SDS011;6735;51.456;12.626;2023-03-20T01:54:59;8.00;;;6.50;;
13331;SDS011;6735;51.456;12.626;2023-03-20T01:57:24;6.97;;;6.37;;
13331;SDS011;6735;51.456;12.626;2023-03-20T02:00:00;9.70;;;7.57;;
13331;SDS011;6735;51.456;12.626;2023-03-20T02:02:30;7.70;;;6.90;;
13331;SDS011;6735;51.456;12.626;2023-03-20T02:04:58;7.73;;;7.13;;
13331;SDS011;6735;51.456;12.626;2023-03-20T02:07:27;7.13;;;6.43;;
13331;SDS011;6735;51.456;12.626;2023-03-20T02:09:52;8.07;;;7.37;;
13331;SDS011;6735;51.456;12.626;2023-03-20T02:12:18;7.30;;;6.60;;
13331;SDS011;6735;51.456;12.626;2023-03-20T02:14:45;7.53;;;6.73;;
13331;SDS011;6735;51.456;12.626;2023-03-20T02:17:12;8.07;;;7.23;;
13331;SDS011;6735;51.456;12.626;2023-03-20T02:25:27;8.20;;;7.37;;
13331;SDS011;6735;51.456;12.626;2023-03-20T02:28:39;7.70;;;7.03;;
13331;SDS011;6735;51.456;12.626;2023-03-20T02:34:11;7.43;;;6.77;;
13331;SDS011;6735;51.456;12.626;2023-03-20T02:42:44;8.27;;;6.70;;
13331;SDS011;6735;51.456;12.626;2023-03-20T02:45:27;7.57;;;6.87;;
13331;SDS011;6735;51.456;12.626;2023-03-20T02:50:50;6.80;;;6.20;;
13331;SDS011;6735;51.456;12.626;2023-03-20T02:53:31;7.93;;;7.13;;
13331;SDS011;6735;51.456;12.626;2023-03-20T02:56:11;7.73;;;6.90;;
13331;SDS011;6735;51.456;12.626;2023-03-20T02:58:47;6.73;;;6.13;;
13331;SDS011;6735;51.456;12.626;2023-03-20T03:01:27;8.97;;;6.67;;
13331;SDS011;6735;51.456;12.626;2023-03-20T03:04:01;7.73;;;7.03;;
13331;SDS011;6735;51.456;12.626;2023-03-20T03:06:32;8.83;;;7.10;;
13331;SDS011;6735;51.456;12.626;2023-03-20T03:12:01;8.57;;;7.80;;
13331;SDS011;6735;51.456;12.626;2023-03-20T03:14:32;7.50;;;6.73;;
13331;SDS011;6735;51.456;12.626;2023-03-20T03:17:03;8.53;;;7.80;;
13331;SDS011;6735;51.456;12.626;2023-03-20T03:19:31;7.50;;;6.80;;
13331;SDS011;6735;51.456;12.626;2023-03-20T03:22:00;8.10;;;7.40;;
13331;SDS011;6735;51.456;12.626;2023-03-20T03:24:38;7.87;;;7.17;;
13331;SDS011;6735;51.456;12.626;2023-03-20T03:27:14;8.07;;;7.37;;
13331;SDS011;6735;51.456;12.626;2023-03-20T03:29:51;8.83;;;8.00;;
13331;SDS011;6735;51.456;12.626;2023-03-20T03:32:28;9.23;;;7.60;;
13331;SDS011;6735;51.456;12.626;2023-03-20T03:34:56;8.87;;;8.07;;
13331;SDS011;6735;51.456;12.626;2023-03-20T03:37:25;9.00;;;8.23;;
13331;SDS011;6735;51.456;12.626;2023-03-20T03:43:17;9.80;;;8.80;;
13331;SDS011;6735;51.456;12.626;2023-03-20T03:45:57;7.97;;;7.30;;
13331;SDS011;6735;51.456;12.626;2023-03-20T03:48:33;8.63;;;7.90;;
13331;SDS011;6735;51.456;12.626;2023-03-20T03:51:03;9.20;;;8.40;;
13331;SDS011;6735;51.456;12.626;2023-03-20T03:53:39;10.03;;;8.93;;
13331;SDS011;6735;51.456;12.626;2023-03-20T03:56:09;9.70;;;8.63;;
13331;SDS011;6735;51.456;12.626;2023-03-20T03:58:40;10.93;;;8.27;;
13331;SDS011;6735;51.456;12.626;2023-03-20T04:01:09;8.37;;;7.67;;
13331;SDS011;6735;51.456;12.626;2023-03-20T04:03:37;9.40;;;7.87;;
13331;SDS011;6735;51.456;12.626;2023-03-20T04:06:06;9.27;;;8.37;;
13331;SDS011;6735;51.456;12.626;2023-03-20T04:08:35;10.23;;;9.30;;
13331;SDS011;6735;51.456;12.626;2023-03-20T04:11:01;10.20;;;9.30;;
13331;SDS011;6735;51.456;12.626;2023-03-20T04:13:26;10.83;;;9.83;;
13331;SDS011;6735;51.456;12.626;2023-03-20T04:15:52;10.90;;;9.90;;
13331;SDS011;6735;51.456;12.626;2023-03-20T04:18:17;11.73;;;9.70;;
13331;SDS011;6735;51.456;12.626;2023-03-20T04:20:44;13.10;;;10.57;;
13331;SDS011;6735;51.456;12.626;2023-03-20T04:23:10;11.67;;;10.40;;
13331;SDS011;6735;51.456;12.626;2023-03-20T04:25:35;11.73;;;10.73;;
13331;SDS011;6735;51.456;12.626;2023-03-20T04:28:01;11.10;;;10.10;;
13331;SDS011;6735;51.456;12.626;2023-03-20T04:30:26;12.10;;;10.90;;
13331;SDS011;6735;51.456;12.626;2023-03-20T04:32:52;13.53;;;11.90;;
13331;SDS011;6735;51.456;12.626;2023-03-20T04:35:17;12.43;;;11.37;;
13331;SDS011;6735;51.456;12.626;2023-03-20T04:37:43;13.17;;;11.97;;
13331;SDS011;6735;51.456;12.626;2023-03-20T04:40:08;12.33;;;11.20;;
13331;SDS011;6735;51.456;12.626;2023-03-20T04:42:34;13.13;;;11.93;;
13331;SDS011;6735;51.456;12.626;2023-03-20T04:45:00;14.00;;;12.83;;
13331;SDS011;6735;51.456;12.626;2023-03-20T04:47:25;15.20;;;13.80;;
13331;SDS011;6735;51.456;12.626;2023-03-20T04:49:51;14.40;;;13.10;;
13331;SDS011;6735;51.456;12.626;2023-03-20T04:52:16;15.33;;;13.83;;
13331;SDS011;6735;51.456;12.626;2023-03-20T04:54:42;13.97;;;12.67;;
13331;SDS011;6735;51.456;12.626;2023-03-20T04:57:07;12.90;;;11.73;;
13331;SDS011;6735;51.456;12.626;2023-03-20T04:59:33;14.53;;;13.23;;
13331;SDS011;6735;51.456;12.626;2023-03-20T05:01:58;13.77;;;12.53;;
13331;SDS011;6735;51.456;12.626;2023-03-20T05:04:24;13.87;;;12.73;;
13331;SDS011;6735;51.456;12.626;2023-03-20T05:06:50;14.27;;;12.97;;
13331;SDS011;6735;51.456;12.626;2023-03-20T05:09:15;13.87;;;12.67;;
13331;SDS011;6735;51.456;12.626;2023-03-20T05:11:41;14.47;;;13.13;;
13331;SDS011;6735;51.456;12.626;2023-03-20T05:14:07;14.03;;;12.73;;
13331;SDS011;6735;51.456;12.626;2023-03-20T05:16:32;14.90;;;13.60;;
13331;SDS011;6735;51.456;12.626;2023-03-20T05:18:58;14.80;;;13.23;;
13331;SDS011;6735;51.456;12.626;2023-03-20T05:21:23;13.80;;;12.67;;
13331;SDS011;6735;51.456;12.626;2023-03-20T05:23:49;14.17;;;12.97;;
13331;SDS011;6735;51.456;12.626;2023-03-20T05:26:15;13.97;;;12.73;;
13331;SDS011;6735;51.456;12.626;2023-03-20T05:28:40;13.77;;;12.67;;
13331;SDS011;6735;51.456;12.626;2023-03-20T05:31:06;13.87;;;12.47;;
13331;SDS011;6735;51.456;12.626;2023-03-20T05:33:31;15.03;;;13.57;;
13331;SDS011;6735;51.456;12.626;2023-03-20T05:35:57;14.50;;;13.20;;
13331;SDS011;6735;51.456;12.626;2023-03-20T05:38:22;14.50;;;13.20;;
13331;SDS011;6735;51.456;12.626;2023-03-20T05:40:49;14.97;;;13.57;;
13331;SDS011;6735;51.456;12.626;2023-03-20T05:43:19;14.73;;;13.33;;
13331;SDS011;6735;51.456;12.626;2023-03-20T05:45:45;14.60;;;13.30;;
13331;SDS011;6735;51.456;12.626;2023-03-20T05:48:10;14.37;;;13.07;;
13331;SDS011;6735;51.456;12.626;2023-03-20T05:50:35;14.80;;;13.50;;
13331;SDS011;6735;51.456;12.626;2023-03-20T05:53:01;13.30;;;11.97;;
13331;SDS011;6735;51.456;12.626;2023-03-20T05:55:26;13.53;;;12.43;;
13331;SDS011;6735;51.456;12.626;2023-03-20T05:57:52;13.77;;;12.47;;
13331;SDS011;6735;51.456;12.626;2023-03-20T06:00:17;13.27;;;12.07;;
13331;SDS011;6735;51.456;12.626;2023-03-20T06:02:43;14.43;;;13.10;;
13331;SDS011;6735;51.456;12.626;2023-03-20T06:05:08;13.73;;;12.63;;
13331;SDS011;6735;51.456;12.626;2023-03-20T06:07:34;14.00;;;12.80;;
13331;SDS011;6735;51.456;12.626;2023-03-20T06:10:00;13.83;;;12.63;;
13331;SDS011;6735;51.456;12.626;2023-03-20T06:12:25;14.23;;;12.83;;
13331;SDS011;6735;51.456;12.626;2023-03-20T06:14:51;14.73;;;13.43;;
13331;SDS011;6735;51.456;12.626;2023-03-20T06:17:16;14.50;;;13.13;;
13331;SDS011;6735;51.456;12.626;2023-03-20T06:19:42;14.03;;;12.83;;
13331;SDS011;6735;51.456;12.626;2023-03-20T06:22:07;14.40;;;13.00;;
13331;SDS011;6735;51.456;12.626;2023-03-20T06:24:33;0.80;;;0.80;;
13331;SDS011;6735;51.456;12.626;2023-03-20T06:26:59;0.40;;;0.40;;
13331;SDS011;6735;51.456;12.626;2023-03-20T06:29:24;0.20;;;0.20;;
13331;SDS011;6735;51.456;12.626;2023-03-20T06:31:50;19.50;;;17.50;;
13331;SDS011;6735;51.456;12.626;2023-03-20T06:34:15;21.53;;;18.17;;
13331;SDS011;6735;51.456;12.626;2023-03-20T06:36:41;26.60;;;20.50;;
13331;SDS011;6735;51.456;12.626;2023-03-20T06:39:06;26.60;;;21.67;;
13331;SDS011;6735;51.456;12.626;2023-03-20T06:41:32;28.17;;;22.67;;
13331;SDS011;6735;51.456;12.626;2023-03-20T06:43:58;37.10;;;25.43;;
13331;SDS011;6735;51.456;12.626;2023-03-20T06:46:23;36.53;;;28.93;;
13331;SDS011;6735;51.456;12.626;2023-03-20T06:48:49;34.90;;;27.37;;
13331;SDS011;6735;51.456;12.626;2023-03-20T06:51:14;40.03;;;28.80;;
13331;SDS011;6735;51.456;12.626;2023-03-20T06:53:40;39.60;;;28.70;;
13331;SDS011;6735;51.456;12.626;2023-03-20T06:56:08;39.23;;;28.20;;
13331;SDS011;6735;51.456;12.626;2023-03-20T06:58:37;43.43;;;29.93;;
13331;SDS011;6735;51.456;12.626;2023-03-20T07:01:12;40.93;;;29.70;;
13331;SDS011;6735;51.456;12.626;2023-03-20T07:03:41;39.63;;;29.67;;
13331;SDS011;6735;51.456;12.626;2023-03-20T07:06:07;39.23;;;29.37;;
13331;SDS011;6735;51.456;12.626;2023-03-20T07:08:33;37.87;;;29.37;;
13331;SDS011;6735;51.456;12.626;2023-03-20T07:10:59;39.30;;;29.00;;
13331;SDS011;6735;51.456;12.626;2023-03-20T07:13:25;40.57;;;29.07;;
13331;SDS011;6735;51.456;12.626;2023-03-20T07:15:52;38.03;;;28.23;;
13331;SDS011;6735;51.456;12.626;2023-03-20T07:18:18;38.63;;;27.47;;
13331;SDS011;6735;51.456;12.626;2023-03-20T07:20:44;37.50;;;28.27;;
13331;SDS011;6735;51.456;12.626;2023-03-20T07:23:10;38.73;;;27.93;;
13331;SDS011;6735;51.456;12.626;2023-03-20T07:25:35;33.83;;;27.00;;
13331;SDS011;6735;51.456;12.626;2023-03-20T07:28:01;35.93;;;27.10;;
13331;SDS011;6735;51.456;12.626;2023-03-20T07:30:27;32.67;;;25.80;;
13331;SDS011;6735;51.456;12.626;2023-03-20T07:32:52;43.17;;;31.80;;
13331;SDS011;6735;51.456;12.626;2023-03-20T07:35:18;45.70;;;32.07;;
13331;SDS011;6735;51.456;12.626;2023-03-20T07:37:44;39.67;;;29.63;;
13331;SDS011;6735;51.456;12.626;2023-03-20T07:40:09;46.20;;;33.10;;
13331;SDS011;6735;51.456;12.626;2023-03-20T07:42:35;47.63;;;33.83;;
13331;SDS011;6735;51.456;12.626;2023-03-20T07:45:01;44.83;;;33.80;;
13331;SDS011;6735;51.456;12.626;2023-03-20T07:47:26;53.17;;;38.47;;
13331;SDS011;6735;51.456;12.626;2023-03-20T07:49:52;58.87;;;39.63;;
13331;SDS011;6735;51.456;12.626;2023-03-20T07:52:17;58.23;;;40.67;;
13331;SDS011;6735;51.456;12.626;2023-03-20T07:54:43;48.60;;;36.13;;
13331;SDS011;6735;51.456;12.626;2023-03-20T07:57:08;48.83;;;33.97;;
13331;SDS011;6735;51.456;12.626;2023-03-20T07:59:34;39.87;;;32.00;;
13331;SDS011;6735;51.456;12.626;2023-03-20T08:01:59;40.10;;;32.47;;
13331;SDS011;6735;51.456;12.626;2023-03-20T08:04:25;38.17;;;31.73;;
13331;SDS011;6735;51.456;12.626;2023-03-20T08:06:50;41.87;;;34.13;;
13331;SDS011;6735;51.456;12.626;2023-03-20T08:09:16;44.07;;;34.50;;
13331;SDS011;6735;51.456;12.626;2023-03-20T08:11:42;41.70;;;35.13;;
13331;SDS011;6735;51.456;12.626;2023-03-20T08:14:08;41.83;;;35.20;;
13331;SDS011;6735;51.456;12.626;2023-03-20T08:16:33;42.17;;;33.93;;
13331;SDS011;6735;51.456;12.626;2023-03-20T08:18:59;43.90;;;34.50;;
13331;SDS011;6735;51.456;12.626;2023-03-20T08:21:26;39.23;;;32.43;;
13331;SDS011;6735;51.456;12.626;2023-03-20T08:23:53;38.87;;;31.97;;
13331;SDS011;6735;51.456;12.626;2023-03-20T08:26:19;40.47;;;32.77;;
13331;SDS011;6735;51.456;12.626;2023-03-20T08:28:44;38.23;;;30.80;;
13331;SDS011;6735;51.456;12.626;2023-03-20T08:31:10;40.33;;;32.70;;
13331;SDS011;6735;51.456;12.626;2023-03-20T08:33:35;37.50;;;32.50;;
13331;SDS011;6735;51.456;12.626;2023-03-20T08:36:01;40.20;;;31.00;;
13331;SDS011;6735;51.456;12.626;2023-03-20T08:38:26;41.50;;;31.97;;
13331;SDS011;6735;51.456;12.626;2023-03-20T08:40:52;37.87;;;31.20;;
13331;SDS011;6735;51.456;12.626;2023-03-20T08:43:20;36.13;;;29.77;;
13331;SDS011;6735;51.456;12.626;2023-03-20T08:45:46;36.60;;;30.93;;
13331;SDS011;6735;51.456;12.626;2023-03-20T08:48:11;35.97;;;30.43;;
13331;SDS011;6735;51.456;12.626;2023-03-20T08:50:37;34.63;;;29.90;;
13331;SDS011;6735;51.456;12.626;2023-03-20T08:53:03;38.93;;;30.97;;
13331;SDS011;6735;51.456;12.626;2023-03-20T08:55:29;36.50;;;29.27;;
13331;SDS011;6735;51.456;12.626;2023-03-20T08:57:54;33.93;;;29.63;;
13331;SDS011;6735;51.456;12.626;2023-03-20T09:00:21;37.63;;;30.17;;
13331;SDS011;6735;51.456;12.626;2023-03-20T09:02:47;36.37;;;29.03;;
13331;SDS011;6735;51.456;12.626;2023-03-20T09:05:13;37.00;;;30.50;;
13331;SDS011;6735;51.456;12.626;2023-03-20T09:07:39;36.17;;;30.93;;
13331;SDS011;6735;51.456;12.626;2023-03-20T09:10:05;38.53;;;31.70;;
13331;SDS011;6735;51.456;12.626;2023-03-20T09:12:31;41.17;;;31.50;;
13331;SDS011;6735;51.456;12.626;2023-03-20T09:14:58;37.83;;;30.63;;
13331;SDS011;6735;51.456;12.626;2023-03-20T09:17:23;37.20;;;30.97;;
13331;SDS011;6735;51.456;12.626;2023-03-20T09:19:49;38.37;;;31.60;;
13331;SDS011;6735;51.456;12.626;2023-03-20T09:22:15;38.30;;;31.13;;
13331;SDS011;6735;51.456;12.626;2023-03-20T09:24:42;38.97;;;31.73;;
13331;SDS011;6735;51.456;12.626;2023-03-20T09:27:08;43.33;;;33.87;;
13331;SDS011;6735;51.456;12.626;2023-03-20T09:29:34;42.13;;;32.40;;
13331;SDS011;6735;51.456;12.626;2023-03-20T09:31:59;41.87;;;31.63;;
13331;SDS011;6735;51.456;12.626;2023-03-20T09:34:25;40.43;;;30.53;;
13331;SDS011;6735;51.456;12.626;2023-03-20T09:36:51;42.23;;;31.43;;
13331;SDS011;6735;51.456;12.626;2023-03-20T09:39:16;38.23;;;29.07;;
13331;SDS011;6735;51.456;12.626;2023-03-20T09:41:45;39.90;;;29.97;;
13331;SDS011;6735;51.456;12.626;2023-03-20T09:44:15;39.70;;;30.10;;
13331;SDS011;6735;51.456;12.626;2023-03-20T09:46:59;38.57;;;29.27;;
13331;SDS011;6735;51.456;12.626;2023-03-20T09:52:02;39.13;;;29.50;;
13331;SDS011;6735;51.456;12.626;2023-03-20T09:54:48;40.57;;;30.67;;
13331;SDS011;6735;51.456;12.626;2023-03-20T09:57:22;40.33;;;29.87;;
13331;SDS011;6735;51.456;12.626;2023-03-20T09:59:52;41.17;;;30.30;;
13331;SDS011;6735;51.456;12.626;2023-03-20T10:02:24;39.60;;;30.63;;
13331;SDS011;6735;51.456;12.626;2023-03-20T10:05:00;40.37;;;29.87;;
13331;SDS011;6735;51.456;12.626;2023-03-20T10:07:28;41.40;;;30.33;;
13331;SDS011;6735;51.456;12.626;2023-03-20T10:09:53;41.23;;;31.93;;
13331;SDS011;6735;51.456;12.626;2023-03-20T10:12:40;41.87;;;31.93;;
13331;SDS011;6735;51.456;12.626;2023-03-20T10:15:18;46.30;;;31.97;;
13331;SDS011;6735;51.456;12.626;2023-03-20T10:23:52;40.83;;;31.80;;
13331;SDS011;6735;51.456;12.626;2023-03-20T10:26:27;41.93;;;31.33;;
13331;SDS011;6735;51.456;12.626;2023-03-20T10:28:55;41.20;;;32.47;;
13331;SDS011;6735;51.456;12.626;2023-03-20T10:31:34;47.47;;;32.53;;
13331;SDS011;6735;51.456;12.626;2023-03-20T10:41:55;49.20;;;33.23;;
13331;SDS011;6735;51.456;12.626;2023-03-20T10:44:27;43.93;;;32.30;;
13331;SDS011;6735;51.456;12.626;2023-03-20T10:46:57;51.50;;;35.87;;
13331;SDS011;6735;51.456;12.626;2023-03-20T10:49:30;51.73;;;36.20;;
13331;SDS011;6735;51.456;12.626;2023-03-20T10:52:11;44.80;;;31.53;;
13331;SDS011;6735;51.456;12.626;2023-03-20T10:54:49;40.73;;;30.63;;
13331;SDS011;6735;51.456;12.626;2023-03-20T10:57:21;40.67;;;30.40;;
13331;SDS011;6735;51.456;12.626;2023-03-20T10:59:49;41.27;;;31.50;;
13331;SDS011;6735;51.456;12.626;2023-03-20T11:02:18;39.33;;;29.63;;
13331;SDS011;6735;51.456;12.626;2023-03-20T11:04:45;46.33;;;31.50;;
13331;SDS011;6735;51.456;12.626;2023-03-20T11:07:31;43.07;;;30.50;;
13331;SDS011;6735;51.456;12.626;2023-03-20T11:12:39;47.00;;;33.60;;
13331;SDS011;6735;51.456;12.626;2023-03-20T11:17:55;51.63;;;34.50;;
13331;SDS011;6735;51.456;12.626;2023-03-20T11:20:22;46.27;;;33.50;;
13331;SDS011;6735;51.456;12.626;2023-03-20T11:23:01;46.80;;;33.47;;
13331;SDS011;6735;51.456;12.626;2023-03-20T11:25:29;48.13;;;34.73;;
13331;SDS011;6735;51.456;12.626;2023-03-20T11:28:17;51.17;;;37.07;;
13331;SDS011;6735;51.456;12.626;2023-03-20T11:30:56;47.90;;;36.00;;
13331;SDS011;6735;51.456;12.626;2023-03-20T11:33:25;50.50;;;36.63;;
13331;SDS011;6735;51.456;12.626;2023-03-20T11:35:52;45.77;;;34.03;;
13331;SDS011;6735;51.456;12.626;2023-03-20T11:38:20;48.07;;;35.67;;
13331;SDS011;6735;51.456;12.626;2023-03-20T11:40:47;47.27;;;34.17;;
13331;SDS011;6735;51.456;12.626;2023-03-20T11:43:14;47.90;;;34.97;;
13331;SDS011;6735;51.456;12.626;2023-03-20T11:45:44;47.07;;;34.30;;
13331;SDS011;6735;51.456;12.626;2023-03-20T11:48:17;47.30;;;34.17;;
13331;SDS011;6735;51.456;12.626;2023-03-20T11:51:46;46.60;;;34.47;;
13331;SDS011;6735;51.456;12.626;2023-03-20T11:56:12;45.33;;;33.40;;
13331;SDS011;6735;51.456;12.626;2023-03-20T11:59:13;46.60;;;34.93;;
13331;SDS011;6735;51.456;12.626;2023-03-20T12:01:47;47.43;;;34.53;;
13331;SDS011;6735;51.456;12.626;2023-03-20T12:04:19;53.80;;;35.77;;
13331;SDS011;6735;51.456;12.626;2023-03-20T12:06:46;55.87;;;36.23;;
13331;SDS011;6735;51.456;12.626;2023-03-20T12:09:22;54.63;;;36.73;;
13331;SDS011;6735;51.456;12.626;2023-03-20T12:12:04;55.37;;;37.27;;
13331;SDS011;6735;51.456;12.626;2023-03-20T12:15:35;50.83;;;36.63;;
13331;SDS011;6735;51.456;12.626;2023-03-20T12:17:55;58.23;;;37.97;;
13331;SDS011;6735;51.456;12.626;2023-03-20T12:20:57;53.90;;;38.67;;
13331;SDS011;6735;51.456;12.626;2023-03-20T12:23:34;51.53;;;37.43;;
13331;SDS011;6735;51.456;12.626;2023-03-20T12:26:27;49.50;;;36.50;;
13331;SDS011;6735;51.456;12.626;2023-03-20T12:29:04;53.00;;;37.77;;
13331;SDS011;6735;51.456;12.626;2023-03-20T12:32:09;56.90;;;38.63;;
13331;SDS011;6735;51.456;12.626;2023-03-20T12:34:51;53.80;;;36.43;;
13331;SDS011;6735;51.456;12.626;2023-03-20T12:37:22;54.83;;;38.57;;
13331;SDS011;6735;51.456;12.626;2023-03-20T12:39:52;60.57;;;39.43;;
13331;SDS011;6735;51.456;12.626;2023-03-20T12:45:18;65.20;;;43.83;;
13331;SDS011;6735;51.456;12.626;2023-03-20T12:50:43;87.37;;;52.13;;
13331;SDS011;6735;51.456;12.626;2023-03-20T12:53:16;65.00;;;43.53;;
13331;SDS011;6735;51.456;12.626;2023-03-20T12:58:57;52.33;;;37.10;;
13331;SDS011;6735;51.456;12.626;2023-03-20T13:01:31;59.27;;;38.83;;
13331;SDS011;6735;51.456;12.626;2023-03-20T13:06:54;53.50;;;38.33;;
13331;SDS011;6735;51.456;12.626;2023-03-20T13:09:31;50.43;;;36.00;;
13331;SDS011;6735;51.456;12.626;2023-03-20T13:17:31;48.53;;;34.97;;
13331;SDS011;6735;51.456;12.626;2023-03-20T13:20:23;48.53;;;35.73;;
13331;SDS011;6735;51.456;12.626;2023-03-20T13:28:26;52.87;;;36.23;;
13331;SDS011;6735;51.456;12.626;2023-03-20T13:31:19;55.17;;;37.07;;
13331;SDS011;6735;51.456;12.626;2023-03-20T13:36:35;52.97;;;36.27;;
13331;SDS011;6735;51.456;12.626;2023-03-20T13:39:17;54.63;;;37.27;;
13331;SDS011;6735;51.456;12.626;2023-03-20T13:41:53;55.87;;;37.43;;
13331;SDS011;6735;51.456;12.626;2023-03-20T13:44:20;51.13;;;35.47;;
13331;SDS011;6735;51.456;12.626;2023-03-20T13:46:48;57.47;;;37.07;;
13331;SDS011;6735;51.456;12.626;2023-03-20T13:49:38;51.43;;;35.80;;
13331;SDS011;6735;51.456;12.626;2023-03-20T13:52:16;53.23;;;36.83;;
13331;SDS011;6735;51.456;12.626;2023-03-20T13:57:21;52.10;;;37.47;;
13331;SDS011;6735;51.456;12.626;2023-03-20T14:03:23;50.97;;;36.83;;
13331;SDS011;6735;51.456;12.626;2023-03-20T14:05:53;46.73;;;35.10;;
13331;SDS011;6735;51.456;12.626;2023-03-20T14:10:54;49.17;;;36.23;;
13331;SDS011;6735;51.456;12.626;2023-03-20T14:13:29;49.70;;;36.13;;
13331;SDS011;6735;51.456;12.626;2023-03-20T14:15:56;48.77;;;36.63;;
13331;SDS011;6735;51.456;12.626;2023-03-20T14:18:26;50.80;;;36.73;;
13331;SDS011;6735;51.456;12.626;2023-03-20T14:20:57;51.53;;;37.27;;
13331;SDS011;6735;51.456;12.626;2023-03-20T14:26:04;44.53;;;34.80;;
13331;SDS011;6735;51.456;12.626;2023-03-20T14:28:47;45.47;;;35.43;;
13331;SDS011;6735;51.456;12.626;2023-03-20T14:31:23;48.73;;;36.00;;
13331;SDS011;6735;51.456;12.626;2023-03-20T14:34:11;46.10;;;35.33;;
13331;SDS011;6735;51.456;12.626;2023-03-20T14:42:25;42.33;;;33.83;;
13331;SDS011;6735;51.456;12.626;2023-03-20T14:47:57;42.17;;;32.50;;
13331;SDS011;6735;51.456;12.626;2023-03-20T14:53:23;38.63;;;30.63;;
13331;SDS011;6735;51.456;12.626;2023-03-20T15:04:04;29.17;;;23.90;;
13331;SDS011;6735;51.456;12.626;2023-03-20T15:06:46;26.33;;;22.47;;
13331;SDS011;6735;51.456;12.626;2023-03-20T15:09:15;25.23;;;21.37;;
13331;SDS011;6735;51.456;12.626;2023-03-20T15:11:44;22.03;;;19.00;;
13331;SDS011;6735;51.456;12.626;2023-03-20T15:14:12;23.73;;;20.43;;
13331;SDS011;6735;51.456;12.626;2023-03-20T15:16:46;23.33;;;18.40;;
13331;SDS011;6735;51.456;12.626;2023-03-20T15:19:21;19.80;;;17.60;;
13331;SDS011;6735;51.456;12.626;2023-03-20T15:21:47;20.67;;;18.13;;
13331;SDS011;6735;51.456;12.626;2023-03-20T15:24:23;20.00;;;17.13;;
13331;SDS011;6735;51.456;12.626;2023-03-20T15:26:51;21.40;;;18.03;;
13331;SDS011;6735;51.456;12.626;2023-03-20T15:29:19;19.63;;;16.73;;
13331;SDS011;6735;51.456;12.626;2023-03-20T15:31:49;19.63;;;16.97;;
13331;SDS011;6735;51.456;12.626;2023-03-20T15:34:19;22.20;;;18.13;;
13331;SDS011;6735;51.456;12.626;2023-03-20T15:36:46;20.00;;;17.90;;
13331;SDS011;6735;51.456;12.626;2023-03-20T15:39:13;20.97;;;18.73;;
13331;SDS011;6735;51.456;12.626;2023-03-20T15:41:45;21.37;;;18.87;;
13331;SDS011;6735;51.456;12.626;2023-03-20T15:44:19;21.40;;;19.03;;
13331;SDS011;6735;51.456;12.626;2023-03-20T15:46:53;21.57;;;19.27;;
13331;SDS011;6735;51.456;12.626;2023-03-20T15:49:21;22.77;;;20.30;;
13331;SDS011;6735;51.456;12.626;2023-03-20T15:51:48;23.93;;;19.97;;
13331;SDS011;6735;51.456;12.626;2023-03-20T15:54:15;24.90;;;21.33;;
13331;SDS011;6735;51.456;12.626;2023-03-20T15:56:48;22.33;;;20.03;;
13331;SDS011;6735;51.456;12.626;2023-03-20T15:59:16;26.83;;;22.13;;
13331;SDS011;6735;51.456;12.626;2023-03-20T16:01:44;24.03;;;21.47;;
13331;SDS011;6735;51.456;12.626;2023-03-20T16:04:14;31.80;;;26.73;;
13331;SDS011;6735;51.456;12.626;2023-03-20T16:06:46;32.07;;;25.93;;
13331;SDS011;6735;51.456;12.626;2023-03-20T16:09:19;26.13;;;22.80;;
13331;SDS011;6735;51.456;12.626;2023-03-20T16:11:46;27.63;;;23.00;;
13331;SDS011;6735;51.456;12.626;2023-03-20T16:14:23;25.53;;;21.53;;
13331;SDS011;6735;51.456;12.626;2023-03-20T16:16:52;26.73;;;21.20;;
13331;SDS011;6735;51.456;12.626;2023-03-20T16:19:20;26.03;;;21.87;;
13331;SDS011;6735;51.456;12.626;2023-03-20T16:21:49;25.70;;;22.37;;
13331;SDS011;6735;51.456;12.626;2023-03-20T16:24:28;28.60;;;22.83;;
13331;SDS011;6735;51.456;12.626;2023-03-20T16:26:59;26.80;;;23.40;;
13331;SDS011;6735;51.456;12.626;2023-03-20T16:29:29;28.87;;;23.23;;
13331;SDS011;6735;51.456;12.626;2023-03-20T16:32:00;27.37;;;22.93;;
13331;SDS011;6735;51.456;12.626;2023-03-20T16:34:32;27.90;;;23.90;;